createdAt,value
2022-10-22T00:02:20.796Z,64.17
2022-10-22T00:04:51.001Z,63.98
2022-10-22T00:07:18.656Z,64.11
2022-10-22T00:09:45.753Z,64.65
2022-10-22T00:12:14.495Z,63.74
2022-10-22T00:14:42.048Z,64.09
2022-10-22T00:17:11.575Z,63.79
2022-10-22T00:19:39.186Z,64.13
2022-10-22T00:22:06.457Z,64.26
2022-10-22T00:24:34.326Z,63.82
2022-10-22T00:27:01.330Z,63.91
2022-10-22T00:29:27.900Z,64.39
2022-10-22T00:34:22.780Z,63.79
2022-10-22T00:36:50.221Z,63.79
2022-10-22T00:39:19.235Z,64.30
2022-10-22T00:41:47.650Z,64.32
2022-10-22T00:44:51.917Z,64.35
2022-10-22T00:47:19.011Z,63.79
2022-10-22T00:49:47.165Z,64.04
2022-10-22T00:52:14.254Z,64.38
2022-10-22T00:54:41.564Z,64.30
2022-10-22T00:57:08.169Z,64.38
2022-10-22T00:59:35.721Z,64.29
2022-10-22T01:02:02.301Z,64.05
2022-10-22T01:04:28.936Z,64.27
2022-10-22T01:06:55.545Z,64.34
2022-10-22T01:09:41.499Z,63.68
2022-10-22T01:12:14.284Z,63.59
2022-10-22T01:14:58.422Z,64.21
2022-10-22T01:17:33.064Z,64.47
2022-10-22T01:20:11.069Z,63.94
2022-10-22T01:22:43.356Z,64.21
2022-10-22T01:25:37.595Z,64.31
2022-10-22T01:28:07.240Z,64.18
2022-10-22T01:30:34.359Z,63.98
2022-10-22T01:33:05.546Z,64.14
2022-10-22T01:35:35.952Z,64.06
2022-10-22T01:38:06.468Z,64.03
2022-10-22T01:40:33.744Z,64.59
2022-10-22T01:43:02.998Z,64.17
2022-10-22T01:45:34.168Z,64.30
2022-10-22T01:48:09.347Z,63.77
2022-10-22T01:50:44.347Z,64.05
2022-10-22T01:53:26.164Z,64.07
2022-10-22T01:56:22.572Z,64.14
2022-10-22T01:58:58.342Z,63.84
2022-10-22T02:01:46.344Z,64.27
2022-10-22T02:04:28.779Z,64.44
2022-10-22T02:06:58.571Z,64.13
2022-10-22T02:09:26.281Z,64.14
2022-10-22T02:11:53.332Z,63.83
2022-10-22T02:14:20.403Z,64.30
2022-10-22T02:16:49.312Z,64.38
2022-10-22T02:19:22.942Z,63.85
2022-10-22T02:21:49.589Z,64.36
2022-10-22T02:24:17.045Z,63.85
2022-10-22T02:26:55.508Z,64.24
2022-10-22T02:29:26.916Z,63.99
2022-10-22T02:31:53.879Z,63.98
2022-10-22T02:34:24.808Z,64.22
2022-10-22T02:36:51.782Z,64.40
2022-10-22T02:39:19.341Z,64.33
2022-10-22T02:41:45.944Z,64.54
2022-10-22T02:44:12.655Z,64.03
2022-10-22T02:46:40.156Z,64.32
2022-10-22T02:49:07.030Z,63.97
2022-10-22T02:51:34.100Z,63.96
2022-10-22T02:54:00.662Z,63.92
2022-10-22T02:56:27.271Z,64.45
2022-10-22T02:58:53.907Z,64.00
2022-10-22T03:01:20.525Z,63.82
2022-10-22T03:03:47.154Z,64.03
2022-10-22T03:06:14.219Z,64.56
2022-10-22T03:08:41.276Z,64.46
2022-10-22T03:11:08.280Z,64.48
2022-10-22T03:13:34.866Z,64.30
2022-10-22T03:16:01.904Z,64.01
2022-10-22T03:18:28.622Z,64.29
2022-10-22T03:21:14.034Z,63.95
2022-10-22T03:23:41.550Z,63.95
2022-10-22T03:26:09.365Z,64.70
2022-10-22T03:28:36.802Z,64.30
2022-10-22T03:31:03.389Z,64.15
2022-10-22T03:33:30.004Z,64.00
2022-10-22T03:35:56.696Z,64.34
2022-10-22T03:38:23.301Z,64.57
2022-10-22T03:40:49.927Z,64.63
2022-10-22T03:43:16.994Z,64.50
2022-10-22T03:45:43.577Z,64.48
2022-10-22T03:48:10.145Z,64.26
2022-10-22T03:50:36.760Z,64.11
2022-10-22T03:53:04.082Z,64.03
2022-10-22T03:55:30.735Z,64.21
2022-10-22T03:57:57.328Z,64.34
2022-10-22T04:00:23.990Z,64.11
2022-10-22T04:02:50.624Z,64.65
2022-10-22T04:05:17.284Z,64.30
2022-10-22T04:07:44.031Z,64.28
2022-10-22T04:10:10.717Z,64.42
2022-10-22T04:12:37.301Z,63.98
2022-10-22T04:15:04.872Z,64.29
2022-10-22T04:17:36.222Z,64.69
2022-10-22T04:20:04.325Z,64.07
2022-10-22T04:22:33.722Z,64.13
2022-10-22T04:25:00.348Z,64.60
2022-10-22T04:27:33.256Z,64.41
2022-10-22T04:29:59.881Z,64.33
2022-10-22T04:32:27.563Z,64.43
2022-10-22T04:34:54.197Z,64.20
2022-10-22T04:37:20.881Z,64.17
2022-10-22T04:39:47.467Z,64.21
2022-10-22T04:42:14.298Z,64.42
2022-10-22T04:44:40.892Z,64.39
2022-10-22T04:47:07.466Z,64.24
2022-10-22T04:49:34.058Z,64.54
2022-10-22T04:52:00.630Z,64.22
2022-10-22T04:54:30.491Z,64.67
2022-10-22T04:56:59.657Z,64.22
2022-10-22T04:59:26.428Z,64.51
2022-10-22T05:01:53.008Z,64.01
2022-10-22T05:04:19.807Z,64.74
2022-10-22T05:06:46.477Z,64.36
2022-10-22T05:09:16.237Z,63.97
2022-10-22T05:11:48.779Z,64.60
2022-10-22T05:14:24.452Z,64.65
2022-10-22T05:16:51.927Z,64.55
2022-10-22T05:19:26.824Z,64.11
2022-10-22T05:21:54.825Z,64.61
2022-10-22T05:24:21.790Z,64.42
2022-10-22T05:26:55.697Z,64.17
2022-10-22T05:29:22.766Z,64.63
2022-10-22T05:31:49.737Z,64.54
2022-10-22T05:34:16.742Z,64.82
2022-10-22T05:36:43.495Z,64.12
2022-10-22T05:39:10.085Z,64.48
2022-10-22T05:41:37.053Z,64.55
2022-10-22T05:44:04.648Z,64.46
2022-10-22T05:46:35.464Z,64.34
2022-10-22T05:49:04.544Z,64.85
2022-10-22T05:51:33.344Z,64.52
2022-10-22T05:54:02.611Z,64.42
2022-10-22T05:56:31.901Z,64.18
2022-10-22T05:58:58.912Z,64.39
2022-10-22T06:01:28.369Z,64.48
2022-10-22T06:03:56.537Z,64.88
2022-10-22T06:06:29.193Z,64.82
2022-10-22T06:08:56.624Z,64.18
2022-10-22T06:11:23.704Z,64.55
2022-10-22T06:13:50.994Z,64.37
2022-10-22T06:16:17.683Z,64.52
2022-10-22T06:18:44.286Z,64.55
2022-10-22T06:21:13.403Z,63.98
2022-10-22T06:23:42.291Z,64.07
2022-10-22T06:26:10.045Z,64.21
2022-10-22T06:28:36.873Z,64.21
2022-10-22T06:31:04.673Z,64.08
2022-10-22T06:33:34.091Z,64.12
2022-10-22T06:36:09.216Z,64.39
2022-10-22T06:38:35.812Z,64.61
2022-10-22T06:41:04.043Z,64.60
2022-10-22T06:43:30.685Z,64.18
2022-10-22T06:46:07.226Z,64.55
2022-10-22T06:48:36.066Z,63.99
2022-10-22T06:51:04.510Z,64.83
2022-10-22T06:53:31.239Z,64.01
2022-10-22T06:55:57.887Z,64.22
2022-10-22T06:58:24.481Z,64.49
2022-10-22T07:01:10.137Z,64.35
2022-10-22T07:03:37.922Z,64.23
2022-10-22T07:06:06.496Z,64.17
2022-10-22T07:08:34.061Z,64.36
2022-10-22T07:11:11.777Z,64.06
2022-10-22T07:13:38.519Z,64.60
2022-10-22T07:16:05.780Z,64.91
2022-10-22T07:18:33.020Z,64.17
2022-10-22T07:20:59.844Z,64.90
2022-10-22T07:23:26.841Z,64.87
2022-10-22T07:25:53.791Z,64.45
2022-10-22T07:28:20.739Z,64.38
2022-10-22T07:30:47.411Z,64.46
2022-10-22T07:33:14.556Z,65.04
2022-10-22T07:35:41.837Z,64.58
2022-10-22T07:38:09.172Z,64.96
2022-10-22T07:40:36.383Z,64.64
2022-10-22T07:43:03.607Z,64.24
2022-10-22T07:45:30.185Z,64.53
2022-10-22T07:47:56.785Z,64.37
2022-10-22T07:50:23.369Z,64.54
2022-10-22T07:52:49.993Z,64.51
2022-10-22T07:55:16.568Z,64.71
2022-10-22T07:57:43.211Z,64.25
2022-10-22T08:00:10.395Z,64.14
2022-10-22T08:02:36.982Z,64.43
2022-10-22T08:05:03.688Z,64.18
2022-10-22T08:07:30.260Z,64.80
2022-10-22T08:09:56.812Z,64.10
2022-10-22T08:12:23.412Z,64.52
2022-10-22T08:14:50.098Z,64.13
2022-10-22T08:17:16.692Z,65.00
2022-10-22T08:19:43.309Z,64.16
2022-10-22T08:22:09.915Z,64.75
2022-10-22T08:24:36.497Z,64.26
2022-10-22T08:27:03.112Z,64.55
2022-10-22T08:29:29.767Z,64.74
2022-10-22T08:31:56.442Z,64.28
2022-10-22T08:34:23.021Z,64.48
2022-10-22T08:36:49.591Z,64.71
2022-10-22T08:39:16.169Z,64.10
2022-10-22T08:42:08.461Z,64.61
2022-10-22T08:44:48.394Z,64.97
2022-10-22T08:47:24.533Z,65.04
2022-10-22T08:49:53.632Z,64.96
2022-10-22T08:52:20.261Z,64.90
2022-10-22T08:54:52.768Z,64.78
2022-10-22T08:57:42.732Z,64.64
2022-10-22T09:00:25.415Z,64.83
2022-10-22T09:03:15.112Z,65.06
2022-10-22T09:06:13.827Z,64.21
2022-10-22T09:08:41.258Z,64.54
2022-10-22T09:11:13.835Z,64.72
2022-10-22T09:13:42.254Z,64.82
2022-10-22T09:16:22.587Z,64.61
2022-10-22T09:19:20.023Z,64.75
2022-10-22T09:21:55.357Z,64.97
2022-10-22T09:24:37.866Z,64.71
2022-10-22T09:27:18.481Z,64.36
2022-10-22T09:29:46.138Z,64.64
2022-10-22T09:32:13.534Z,64.84
2022-10-22T09:34:40.325Z,64.41
2022-10-22T09:37:09.016Z,64.91
2022-10-22T09:39:40.987Z,64.65
2022-10-22T09:42:11.501Z,64.81
2022-10-22T09:44:38.780Z,64.88
2022-10-22T09:47:37.349Z,64.43
2022-10-22T09:50:09.609Z,64.88
2022-10-22T09:52:36.286Z,64.81
2022-10-22T09:55:09.009Z,64.67
2022-10-22T09:57:37.921Z,64.25
2022-10-22T10:00:10.667Z,64.56
2022-10-22T10:02:40.493Z,64.65
2022-10-22T10:05:08.146Z,64.83
2022-10-22T10:07:35.748Z,64.15
2022-10-22T10:10:06.554Z,64.75
2022-10-22T10:12:47.690Z,64.56
2022-10-22T10:15:26.284Z,64.41
2022-10-22T10:18:19.548Z,64.51
2022-10-22T10:20:52.163Z,64.82
2022-10-22T10:23:30.603Z,64.75
2022-10-22T10:26:15.415Z,64.21
2022-10-22T10:28:57.084Z,64.16
2022-10-22T10:31:45.235Z,64.32
2022-10-22T10:34:33.908Z,64.26
2022-10-22T10:37:09.592Z,64.70
2022-10-22T10:39:54.640Z,64.08
2022-10-22T10:42:34.032Z,64.12
2022-10-22T10:45:45.510Z,64.19
2022-10-22T10:48:55.636Z,64.28
2022-10-22T10:51:48.825Z,64.48
2022-10-22T10:54:30.539Z,64.16
2022-10-22T10:57:00.830Z,64.26
2022-10-22T10:59:27.367Z,64.78
2022-10-22T11:01:53.952Z,64.79
2022-10-22T11:04:46.489Z,64.78
2022-10-22T11:07:34.129Z,64.92
2022-10-22T11:10:05.943Z,64.42
2022-10-22T11:12:41.535Z,64.55
2022-10-22T11:15:27.856Z,64.68
2022-10-22T11:17:59.956Z,64.02
2022-10-22T11:20:41.316Z,64.48
2022-10-22T11:23:19.833Z,64.56
2022-10-22T11:25:49.418Z,64.25
2022-10-22T11:28:20.142Z,64.67
2022-10-22T11:30:51.123Z,64.48
2022-10-22T11:33:20.488Z,64.19
2022-10-22T11:35:47.873Z,64.48
2022-10-22T11:38:17.382Z,63.87
2022-10-22T11:40:49.065Z,64.11
2022-10-22T11:43:32.179Z,63.82
2022-10-22T11:46:05.078Z,64.07
2022-10-22T11:48:37.657Z,63.97
2022-10-22T11:51:04.992Z,64.16
2022-10-22T11:53:32.725Z,63.67
2022-10-22T11:56:09.946Z,64.47
2022-10-22T11:58:50.743Z,63.81
2022-10-22T12:01:26.622Z,64.27
2022-10-22T12:03:56.220Z,64.37
2022-10-22T12:06:26.154Z,64.11
2022-10-22T12:09:01.375Z,64.19
2022-10-22T12:11:36.387Z,64.09
2022-10-22T12:14:20.581Z,63.92
2022-10-22T12:16:58.946Z,64.17
2022-10-22T12:19:31.530Z,63.99
2022-10-22T12:22:02.340Z,64.17
2022-10-22T12:24:35.563Z,64.38
2022-10-22T12:27:02.444Z,64.23
2022-10-22T12:29:32.041Z,64.05
2022-10-22T12:32:03.972Z,64.27
2022-10-22T12:34:30.642Z,64.05
2022-10-22T12:36:57.207Z,64.33
2022-10-22T12:39:27.454Z,64.48
2022-10-22T12:41:54.887Z,63.97
2022-10-22T12:44:21.492Z,64.18
2022-10-22T12:46:52.936Z,64.25
2022-10-22T12:49:25.638Z,63.77
2022-10-22T12:51:52.329Z,63.60
2022-10-22T12:54:26.504Z,63.51
2022-10-22T12:56:54.098Z,63.82
2022-10-22T12:59:24.580Z,63.60
2022-10-22T13:01:52.250Z,62.96
2022-10-22T13:04:28.270Z,63.17
2022-10-22T13:07:12.837Z,63.17
2022-10-22T13:09:41.328Z,63.51
2022-10-22T13:12:14.869Z,63.65
2022-10-22T13:14:41.446Z,63.49
2022-10-22T13:17:15.413Z,63.36
2022-10-22T13:20:01.785Z,63.61
2022-10-22T13:22:30.235Z,63.80
2022-10-22T13:25:13.106Z,63.61
2022-10-22T13:27:50.550Z,63.78
2022-10-22T13:30:35.150Z,64.06
2022-10-22T13:33:34.962Z,63.73
2022-10-22T13:36:01.602Z,63.74
2022-10-22T13:38:28.690Z,63.07
2022-10-22T13:40:56.027Z,62.94
2022-10-22T13:43:23.171Z,63.05
2022-10-22T13:45:53.601Z,62.58
2022-10-22T13:48:22.094Z,62.41
2022-10-22T13:50:49.775Z,62.57
2022-10-22T13:53:21.405Z,62.17
2022-10-22T13:55:48.178Z,62.54
2022-10-22T13:58:19.860Z,62.08
2022-10-22T14:00:50.014Z,62.44
2022-10-22T14:03:19.597Z,62.40
2022-10-22T14:05:47.317Z,62.27
2022-10-22T14:08:21.375Z,62.25
2022-10-22T14:10:48.187Z,62.57
2022-10-22T14:13:17.392Z,62.84
2022-10-22T14:15:45.627Z,62.83
2022-10-22T14:18:16.924Z,62.76
2022-10-22T14:20:43.587Z,62.71
2022-10-22T14:23:19.917Z,62.56
2022-10-22T14:25:47.542Z,62.49
2022-10-22T14:28:14.617Z,61.53
2022-10-22T14:30:41.312Z,61.33
2022-10-22T14:33:16.091Z,61.18
2022-10-22T14:35:42.924Z,60.92
2022-10-22T14:38:09.602Z,60.66
2022-10-22T14:40:38.939Z,60.91
2022-10-22T14:43:05.601Z,60.68
2022-10-22T14:45:32.356Z,60.40
2022-10-22T14:47:58.930Z,60.70
2022-10-22T14:50:25.508Z,61.34
2022-10-22T14:52:52.297Z,62.34
2022-10-22T14:55:19.907Z,62.77
2022-10-22T14:57:46.820Z,62.97
2022-10-22T15:00:18.235Z,62.79
2022-10-22T15:02:45.552Z,62.50
2022-10-22T15:05:12.279Z,62.77
2022-10-22T15:07:39.309Z,63.24
2022-10-22T15:10:07.200Z,62.98
2022-10-22T15:12:33.985Z,63.22
2022-10-22T15:15:00.571Z,63.59
2022-10-22T15:17:27.210Z,63.52
2022-10-22T15:19:55.686Z,63.85
2022-10-22T15:22:22.529Z,63.59
2022-10-22T15:24:49.701Z,63.62
2022-10-22T15:27:16.452Z,63.77
2022-10-22T15:29:43.298Z,64.00
2022-10-22T15:32:10.527Z,63.78
2022-10-22T15:34:39.947Z,63.87
2022-10-22T15:37:08.948Z,63.89
2022-10-22T15:39:35.868Z,63.82
2022-10-22T15:42:02.544Z,63.80
2022-10-22T15:44:30.722Z,63.88
2022-10-22T15:46:58.107Z,63.62
2022-10-22T15:49:26.503Z,64.27
2022-10-22T15:51:53.768Z,64.04
2022-10-22T15:54:23.051Z,63.72
2022-10-22T15:56:49.992Z,63.80
2022-10-22T15:59:17.337Z,64.01
2022-10-22T16:01:44.449Z,63.86
2022-10-22T16:04:11.070Z,64.16
2022-10-22T16:06:43.003Z,64.00
2022-10-22T16:09:15.191Z,64.36
2022-10-22T16:11:42.144Z,64.37
2022-10-22T16:14:10.902Z,64.23
2022-10-22T16:16:42.606Z,64.26
2022-10-22T16:19:13.257Z,63.97
2022-10-22T16:21:40.086Z,64.22
2022-10-22T16:24:08.532Z,64.04
2022-10-22T16:26:36.027Z,64.35
2022-10-22T16:29:03.451Z,64.32
2022-10-22T16:31:30.085Z,64.03
2022-10-22T16:33:57.622Z,64.50
2022-10-22T16:36:24.566Z,64.05
2022-10-22T16:38:51.268Z,63.85
2022-10-22T16:41:21.351Z,64.34
2022-10-22T16:43:49.758Z,64.69
2022-10-22T16:46:19.053Z,64.45
2022-10-22T16:48:51.591Z,64.44
2022-10-22T16:51:23.666Z,64.22
2022-10-22T16:53:54.395Z,64.22
2022-10-22T16:56:21.446Z,64.24
2022-10-22T16:58:50.696Z,64.47
2022-10-22T17:01:18.780Z,64.22
2022-10-22T17:03:45.545Z,64.38
2022-10-22T17:06:12.339Z,64.61
2022-10-22T17:08:40.582Z,64.50
2022-10-22T17:11:12.430Z,64.24
2022-10-22T17:13:41.146Z,64.40
2022-10-22T17:16:10.409Z,64.32
2022-10-22T17:18:38.882Z,64.47
2022-10-22T17:21:06.313Z,64.71
2022-10-22T17:23:32.919Z,64.26
2022-10-22T17:26:01.130Z,64.83
2022-10-22T17:28:28.906Z,64.84
2022-10-22T17:31:27.308Z,64.71
2022-10-22T17:33:55.654Z,64.93
2022-10-22T17:36:23.571Z,64.72
2022-10-22T17:38:52.841Z,64.71
2022-10-22T17:41:22.784Z,64.72
2022-10-22T17:43:49.617Z,64.77
2022-10-22T17:46:19.276Z,64.79
2022-10-22T17:48:49.699Z,64.39
2022-10-22T17:51:17.069Z,64.56
2022-10-22T17:53:45.652Z,64.79
2022-10-22T17:56:14.635Z,64.85
2022-10-22T17:58:41.375Z,64.39
2022-10-22T18:01:16.736Z,64.63
2022-10-22T18:03:43.355Z,64.67
2022-10-22T18:06:10.602Z,64.51
2022-10-22T18:08:37.365Z,64.47
2022-10-22T18:11:09.284Z,65.01
2022-10-22T18:13:36.306Z,64.70
2022-10-22T18:16:03.016Z,64.72
2022-10-22T18:18:29.577Z,64.90
2022-10-22T18:20:56.302Z,64.92
2022-10-22T18:23:23.046Z,64.85
2022-10-22T18:25:49.944Z,64.65
2022-10-22T18:28:17.764Z,64.50
2022-10-22T18:30:45.325Z,64.91
2022-10-22T18:33:16.709Z,64.73
2022-10-22T18:35:43.307Z,64.67
2022-10-22T18:38:10.613Z,64.79
2022-10-22T18:40:43.826Z,64.96
2022-10-22T18:43:10.368Z,64.85
2022-10-22T18:45:44.231Z,64.84
2022-10-22T18:48:13.324Z,64.70
2022-10-22T18:50:40.108Z,64.57
2022-10-22T18:53:06.711Z,64.72
2022-10-22T18:55:34.008Z,64.88
2022-10-22T18:58:00.615Z,64.92
2022-10-22T19:00:27.342Z,64.98
2022-10-22T19:02:54.944Z,64.84
2022-10-22T19:05:21.675Z,65.15
2022-10-22T19:07:49.873Z,64.72
2022-10-22T19:10:17.726Z,64.69
2022-10-22T19:12:44.311Z,65.17
2022-10-22T19:15:11.078Z,64.60
2022-10-22T19:17:37.769Z,64.60
2022-10-22T19:20:05.126Z,64.72
2022-10-22T19:22:32.195Z,64.64
2022-10-22T19:24:58.928Z,64.79
2022-10-22T19:27:25.676Z,65.08
2022-10-22T19:29:52.329Z,65.01
2022-10-22T19:32:20.143Z,64.60
2022-10-22T19:34:47.298Z,64.98
2022-10-22T19:37:14.096Z,65.04
2022-10-22T19:39:40.755Z,64.87
2022-10-22T19:42:07.345Z,64.72
2022-10-22T19:44:33.907Z,64.81
2022-10-22T19:47:00.647Z,65.18
2022-10-22T19:49:27.234Z,65.11
2022-10-22T19:51:53.806Z,64.97
2022-10-22T19:54:20.628Z,64.77
2022-10-22T19:56:48.076Z,64.74
2022-10-22T19:59:16.281Z,64.80
2022-10-22T20:01:42.944Z,65.13
2022-10-22T20:04:14.866Z,65.02
2022-10-22T20:06:41.470Z,64.81
2022-10-22T20:09:08.239Z,65.05
2022-10-22T20:11:34.821Z,64.95
2022-10-22T20:14:01.546Z,65.27
2022-10-22T20:16:29.908Z,64.71
2022-10-22T20:19:01.844Z,64.86
2022-10-22T20:21:28.716Z,64.80
2022-10-22T20:23:57.355Z,64.64
2022-10-22T20:26:27.779Z,64.78
2022-10-22T20:28:55.962Z,65.04
2022-10-22T20:31:24.118Z,64.73
2022-10-22T20:33:51.117Z,64.97
2022-10-22T20:36:20.403Z,64.91
2022-10-22T20:38:48.299Z,64.73
2022-10-22T20:41:20.529Z,64.77
2022-10-22T20:43:48.643Z,65.01
2022-10-22T20:46:22.963Z,65.15
2022-10-22T20:48:52.865Z,64.90
2022-10-22T20:51:19.720Z,64.91
2022-10-22T20:53:46.372Z,65.05
2022-10-22T20:56:13.054Z,64.98
2022-10-22T20:58:39.868Z,64.87
2022-10-22T21:01:10.723Z,64.94
2022-10-22T21:03:37.864Z,65.24
2022-10-22T21:06:05.573Z,65.25
2022-10-22T21:08:32.319Z,64.65
2022-10-22T21:10:58.945Z,64.94
2022-10-22T21:13:25.548Z,65.00
2022-10-22T21:15:52.105Z,65.45
2022-10-22T21:18:18.668Z,65.43
2022-10-22T21:20:45.251Z,65.04
2022-10-22T21:23:11.893Z,65.13
2022-10-22T21:25:41.969Z,65.32
2022-10-22T21:28:11.074Z,65.08
2022-10-22T21:30:44.759Z,65.26
2022-10-22T21:33:11.493Z,65.05
2022-10-22T21:35:38.055Z,64.99
2022-10-22T21:38:05.275Z,64.84
2022-10-22T21:40:31.938Z,65.03
2022-10-22T21:42:58.558Z,65.41
2022-10-22T21:45:25.148Z,65.15
2022-10-22T21:47:51.699Z,64.95
2022-10-22T21:50:18.543Z,65.12
2022-10-22T21:52:45.176Z,64.99
2022-10-22T21:55:11.783Z,64.98
2022-10-22T21:57:38.380Z,64.99
2022-10-22T22:00:06.865Z,64.88
2022-10-22T22:02:33.682Z,65.05
2022-10-22T22:05:00.301Z,65.29
2022-10-22T22:07:26.910Z,65.20
2022-10-22T22:09:53.497Z,65.15
2022-10-22T22:12:21.135Z,65.11
2022-10-22T22:14:47.761Z,65.35
2022-10-22T22:17:16.505Z,65.20
2022-10-22T22:19:43.158Z,65.42
2022-10-22T22:22:09.747Z,64.98
2022-10-22T22:24:38.288Z,65.21
2022-10-22T22:27:04.853Z,65.41
2022-10-22T22:29:31.415Z,65.39
2022-10-22T22:31:57.991Z,65.20
2022-10-22T22:34:24.556Z,64.81
2022-10-22T22:36:51.147Z,65.19
2022-10-22T22:39:22.767Z,65.12
2022-10-22T22:41:49.715Z,64.93
2022-10-22T22:44:16.440Z,65.57
2022-10-22T22:46:43.317Z,65.16
2022-10-22T22:49:10.203Z,65.38
2022-10-22T22:51:36.841Z,65.31
2022-10-22T22:54:03.732Z,65.13
2022-10-22T22:56:32.075Z,65.27
2022-10-22T22:58:58.791Z,65.49
2022-10-22T23:01:27.573Z,65.26
2022-10-22T23:04:02.915Z,65.50
2022-10-22T23:06:31.905Z,65.37
2022-10-22T23:08:59.018Z,65.28
2022-10-22T23:11:27.416Z,65.29
2022-10-22T23:14:00.314Z,65.19
2022-10-22T23:16:29.274Z,65.20
2022-10-22T23:18:56.614Z,64.87
2022-10-22T23:21:28.359Z,64.82
2022-10-22T23:23:58.288Z,65.15
2022-10-22T23:26:34.710Z,64.68
2022-10-22T23:29:22.259Z,65.12
2022-10-22T23:31:50.050Z,65.06
2022-10-22T23:34:21.093Z,64.96
2022-10-22T23:36:47.730Z,65.37
2022-10-22T23:39:17.480Z,64.74
2022-10-22T23:41:44.864Z,65.26
2022-10-22T23:44:12.128Z,65.06
2022-10-22T23:46:39.273Z,64.83
2022-10-22T23:49:07.491Z,65.26
2022-10-22T23:51:34.145Z,65.02
2022-10-22T23:54:03.157Z,65.39
2022-10-22T23:56:30.301Z,65.06
2022-10-22T23:58:57.562Z,65.36
